X  Cerrar Datos meteorológicos de aviación METAR     LEZL Sevilla Airport
Temperatura
18°C Temperatura
10°C Punto de rocío
60% Humedad



Viento
0 KM/H
0 MPH
0 M/S
0 NUDO



Calma
Norte
Condiciones actuales

Despejado Despejado
Presión 1010.92 (hPa) - 29.85 (inHg)
Visibilidad 6.2 (milla) - 10 (km)
Aeropuerto
Código de aeropuerto LEZL

localidad: Sevilla Airport
Distancia: 41 (km)

Metar:
LEZL 250200Z AUTO 00000KT CAVOK 18/10 Q1011

Hora: 25-09-2022 04:00 CEST